createdAt,value
2018-09-22T00:00:54.717Z,18.40
2018-09-22T00:03:25.501Z,18.40
2018-09-22T00:05:55.945Z,18.30
2018-09-22T00:08:26.491Z,18.20
2018-09-22T00:10:57.609Z,18.20
2018-09-22T00:13:28.251Z,18.20
2018-09-22T00:15:58.761Z,18.20
2018-09-22T00:18:29.389Z,18.20
2018-09-22T00:21:00.032Z,18.10
2018-09-22T00:23:30.558Z,18.10
2018-09-22T00:26:01.110Z,18.10
2018-09-22T00:28:32.039Z,18.10
2018-09-22T00:31:02.842Z,18.10
2018-09-22T00:33:33.861Z,18.20
2018-09-22T00:36:04.643Z,18.10
2018-09-22T00:38:35.317Z,18.10
2018-09-22T00:41:05.971Z,18.10
2018-09-22T00:43:36.493Z,18.00
2018-09-22T00:46:07.175Z,18.00
2018-09-22T00:48:37.771Z,18.00
2018-09-22T00:51:08.577Z,18.00
2018-09-22T00:53:39.346Z,18.00
2018-09-22T00:56:09.895Z,18.00
2018-09-22T00:58:40.623Z,17.90
2018-09-22T01:01:11.686Z,18.00
2018-09-22T01:03:42.196Z,18.00
2018-09-22T01:06:13.199Z,18.00
2018-09-22T01:08:44.119Z,18.00
2018-09-22T01:11:15.000Z,17.90
2018-09-22T01:13:45.539Z,17.90
2018-09-22T01:16:15.959Z,17.90
2018-09-22T01:18:46.563Z,17.80
2018-09-22T01:21:17.104Z,17.70
2018-09-22T01:23:47.547Z,17.60
2018-09-22T01:26:19.004Z,17.50
2018-09-22T01:28:49.521Z,17.40
2018-09-22T01:31:20.475Z,17.30
2018-09-22T01:33:50.952Z,17.30
2018-09-22T01:36:21.545Z,17.20
2018-09-22T01:38:51.940Z,17.20
2018-09-22T01:41:22.531Z,17.30
2018-09-22T01:43:53.363Z,17.30
2018-09-22T01:46:24.018Z,17.20
2018-09-22T01:48:54.701Z,17.30
2018-09-22T01:51:25.347Z,17.30
2018-09-22T01:53:56.511Z,17.30
2018-09-22T01:56:27.121Z,17.30
2018-09-22T01:58:57.813Z,17.30
2018-09-22T02:01:28.564Z,17.30
2018-09-22T02:03:59.121Z,17.20
2018-09-22T02:06:29.712Z,17.20
2018-09-22T02:09:00.264Z,17.10
2018-09-22T02:11:31.095Z,17.10
2018-09-22T02:14:01.584Z,17.00
2018-09-22T02:16:32.083Z,17.00
2018-09-22T02:19:02.858Z,17.00
2018-09-22T02:21:33.439Z,16.90
2018-09-22T02:24:04.180Z,16.90
2018-09-22T02:26:34.945Z,16.90
2018-09-22T02:29:05.669Z,16.80
2018-09-22T02:31:36.142Z,16.80
2018-09-22T02:34:06.755Z,16.70
2018-09-22T02:36:37.573Z,16.70
2018-09-22T02:39:11.085Z,16.70
2018-09-22T02:41:41.774Z,16.70
2018-09-22T02:44:12.509Z,16.70
2018-09-22T02:46:43.177Z,16.70
2018-09-22T02:49:13.700Z,16.70
2018-09-22T02:51:44.137Z,16.60
2018-09-22T02:54:14.744Z,16.60
2018-09-22T02:56:45.289Z,16.70
2018-09-22T02:59:16.047Z,16.70
2018-09-22T03:01:46.973Z,16.70
2018-09-22T03:04:17.648Z,16.80
2018-09-22T03:06:48.456Z,16.70
2018-09-22T03:09:19.207Z,16.60
2018-09-22T03:11:50.136Z,16.60
2018-09-22T03:14:21.017Z,16.50
2018-09-22T03:16:51.696Z,16.50
2018-09-22T03:19:22.342Z,16.40
2018-09-22T03:21:53.109Z,16.30
2018-09-22T03:24:23.776Z,16.40
2018-09-22T03:26:54.403Z,16.30
2018-09-22T03:29:24.951Z,16.40
2018-09-22T03:31:55.616Z,16.40
2018-09-22T03:34:26.266Z,16.40
2018-09-22T03:36:57.035Z,16.30
2018-09-22T03:39:27.969Z,16.20
2018-09-22T03:41:58.530Z,16.10
2018-09-22T03:44:29.118Z,16.10
2018-09-22T03:46:59.941Z,16.00
2018-09-22T03:49:30.489Z,16.00
2018-09-22T03:52:01.216Z,16.00
2018-09-22T03:54:31.651Z,15.90
2018-09-22T03:57:02.559Z,15.80
2018-09-22T03:59:33.058Z,15.80
2018-09-22T04:02:03.653Z,15.70
2018-09-22T04:04:34.151Z,15.70
2018-09-22T04:07:04.980Z,15.70
2018-09-22T04:09:35.753Z,15.70
2018-09-22T04:12:06.488Z,15.70
2018-09-22T04:14:37.468Z,15.60
2018-09-22T04:17:08.909Z,15.70
2018-09-22T04:19:39.845Z,15.60
2018-09-22T04:22:10.704Z,15.60
2018-09-22T04:24:41.495Z,15.60
2018-09-22T04:27:12.058Z,15.70
2018-09-22T04:29:42.991Z,15.70
2018-09-22T04:32:13.590Z,15.70
2018-09-22T04:34:45.055Z,15.70
2018-09-22T04:37:15.604Z,15.80
2018-09-22T04:39:46.177Z,15.80
2018-09-22T04:42:16.736Z,15.80
2018-09-22T04:44:47.294Z,15.80
2018-09-22T04:47:18.795Z,15.80
2018-09-22T04:49:49.490Z,15.80
2018-09-22T04:52:20.182Z,15.80
2018-09-22T04:54:51.483Z,15.80
2018-09-22T04:57:23.181Z,15.90
2018-09-22T04:59:54.332Z,16.00
2018-09-22T05:02:25.330Z,16.10
2018-09-22T05:04:56.127Z,16.10
2018-09-22T05:07:26.942Z,16.10
2018-09-22T05:09:57.947Z,16.20
2018-09-22T05:12:29.229Z,16.20
2018-09-22T05:15:00.709Z,16.20
2018-09-22T05:17:31.524Z,16.30
2018-09-22T05:20:02.717Z,16.40
2018-09-22T05:22:33.464Z,16.40
2018-09-22T05:25:05.403Z,16.30
2018-09-22T05:27:35.893Z,16.20
2018-09-22T05:30:06.759Z,16.10
2018-09-22T05:32:37.349Z,16.10
2018-09-22T05:35:08.036Z,16.20
2018-09-22T05:37:38.545Z,16.40
2018-09-22T05:40:09.189Z,16.70
2018-09-22T05:42:40.377Z,17.00
2018-09-22T05:45:11.068Z,17.20
2018-09-22T05:47:41.916Z,17.30
2018-09-22T05:50:12.496Z,17.50
2018-09-22T05:52:43.629Z,17.50
2018-09-22T05:55:14.644Z,17.50
2018-09-22T05:57:46.453Z,17.40
2018-09-22T06:00:17.561Z,17.40
2018-09-22T06:02:48.525Z,17.30
2018-09-22T06:05:19.520Z,17.50
2018-09-22T06:07:50.020Z,17.70
2018-09-22T06:10:21.688Z,18.20
2018-09-22T06:12:52.950Z,18.70
2018-09-22T06:15:23.655Z,19.20
2018-09-22T06:17:55.284Z,19.70
2018-09-22T06:20:26.286Z,20.00
2018-09-22T06:22:57.138Z,20.30
2018-09-22T06:25:30.000Z,20.70
2018-09-22T06:28:00.936Z,21.00
2018-09-22T06:30:32.407Z,21.20
2018-09-22T06:33:03.201Z,21.90
2018-09-22T06:35:34.383Z,22.40
2018-09-22T06:38:05.392Z,23.30
2018-09-22T06:40:36.350Z,23.80
2018-09-22T06:43:08.934Z,23.50
2018-09-22T06:45:39.854Z,23.30
2018-09-22T06:48:12.106Z,24.00
2018-09-22T06:50:42.793Z,24.10
2018-09-22T06:53:15.228Z,24.40
2018-09-22T06:55:46.730Z,24.50
2018-09-22T06:58:20.463Z,24.60
2018-09-22T07:00:53.313Z,24.70
2018-09-22T07:03:25.002Z,25.00
2018-09-22T07:05:56.400Z,25.30
2018-09-22T07:08:35.010Z,25.70
2018-09-22T07:11:12.797Z,26.20
2018-09-22T07:13:56.303Z,26.50
2018-09-22T07:16:33.785Z,26.50
2018-09-22T07:19:15.367Z,26.80
2018-09-22T07:22:56.796Z,26.40
2018-09-22T07:25:36.641Z,26.70
2018-09-22T07:28:14.711Z,27.30
2018-09-22T07:30:46.370Z,27.60
2018-09-22T07:33:17.431Z,27.70
2018-09-22T07:35:49.087Z,27.30
2018-09-22T07:38:20.724Z,27.30
2018-09-22T07:40:53.877Z,27.20
2018-09-22T07:43:24.660Z,27.60
2018-09-22T07:45:55.650Z,27.90
2018-09-22T07:48:26.874Z,28.00
2018-09-22T07:50:57.759Z,28.00
2018-09-22T07:53:28.904Z,27.80
2018-09-22T07:55:59.963Z,28.30
2018-09-22T07:58:31.080Z,28.10
2018-09-22T08:01:03.924Z,28.50
2018-09-22T08:03:34.774Z,28.40
2018-09-22T08:06:06.839Z,29.10
2018-09-22T08:08:39.068Z,29.10
2018-09-22T08:11:11.142Z,29.60
2018-09-22T08:13:44.475Z,30.10
2018-09-22T08:16:16.550Z,30.10
2018-09-22T08:18:49.175Z,30.10
2018-09-22T08:21:20.329Z,30.10
2018-09-22T08:23:51.413Z,30.00
2018-09-22T08:26:25.385Z,30.00
2018-09-22T08:28:56.956Z,30.30
2018-09-22T08:31:29.444Z,30.20
2018-09-22T08:34:01.628Z,30.50
2018-09-22T08:36:33.093Z,30.50
2018-09-22T08:39:09.294Z,31.30
2018-09-22T08:41:42.181Z,31.90
2018-09-22T08:44:13.146Z,32.60
2018-09-22T08:46:44.663Z,32.40
2018-09-22T08:49:16.717Z,32.30
2018-09-22T08:51:50.509Z,32.80
2018-09-22T08:54:23.618Z,33.20
2018-09-22T08:56:54.449Z,33.70
2018-09-22T08:59:25.336Z,33.50
2018-09-22T09:01:56.494Z,32.50
2018-09-22T09:04:28.268Z,30.90
2018-09-22T09:06:59.465Z,30.60
2018-09-22T09:09:30.287Z,30.30
2018-09-22T09:12:02.970Z,31.40
2018-09-22T09:14:34.093Z,32.40
2018-09-22T09:17:04.994Z,32.60
2018-09-22T09:19:38.895Z,32.70
2018-09-22T09:22:09.501Z,32.80
2018-09-22T09:24:40.301Z,31.60
2018-09-22T09:27:11.028Z,31.50
2018-09-22T09:29:42.571Z,30.90
2018-09-22T09:32:17.372Z,31.10
2018-09-22T09:34:50.058Z,30.70
2018-09-22T09:37:20.922Z,31.40
2018-09-22T09:39:52.454Z,30.40
2018-09-22T09:42:23.396Z,31.70
2018-09-22T09:44:57.554Z,32.70
2018-09-22T09:47:29.416Z,32.70
2018-09-22T09:50:00.164Z,33.20
2018-09-22T09:52:31.144Z,32.70
2018-09-22T09:55:02.150Z,33.30
2018-09-22T09:57:33.533Z,31.90
2018-09-22T10:00:05.210Z,32.00
2018-09-22T10:02:35.945Z,32.90
2018-09-22T10:05:07.241Z,33.30
2018-09-22T10:07:38.280Z,33.90
2018-09-22T10:10:10.573Z,33.80
2018-09-22T10:12:41.437Z,33.70
2018-09-22T10:15:12.669Z,32.80
2018-09-22T10:17:43.826Z,33.00
2018-09-22T10:20:14.615Z,31.70
2018-09-22T10:22:45.702Z,30.90
2018-09-22T10:25:16.827Z,30.50
2018-09-22T10:27:47.855Z,31.80
2018-09-22T10:30:19.882Z,33.20
2018-09-22T10:32:50.673Z,34.00
2018-09-22T10:35:21.982Z,34.70
2018-09-22T10:37:52.788Z,33.80
2018-09-22T10:40:23.511Z,32.30
2018-09-22T10:42:55.100Z,33.20
2018-09-22T10:45:26.015Z,34.20
2018-09-22T10:47:56.874Z,34.70
2018-09-22T10:50:27.739Z,32.30
2018-09-22T10:53:00.572Z,33.50
2018-09-22T10:55:31.983Z,34.40
2018-09-22T10:58:02.971Z,33.10
2018-09-22T11:00:34.107Z,33.90
2018-09-22T11:03:05.500Z,34.20
2018-09-22T11:05:36.560Z,34.80
2018-09-22T11:08:08.661Z,35.10
2018-09-22T11:10:39.700Z,34.60
2018-09-22T11:13:10.681Z,33.80
2018-09-22T11:15:42.164Z,34.40
2018-09-22T11:18:14.909Z,34.50
2018-09-22T11:20:47.487Z,35.20
2018-09-22T11:23:25.073Z,35.00
2018-09-22T11:26:02.257Z,33.70
2018-09-22T11:28:38.035Z,32.60
2018-09-22T11:31:13.406Z,33.90
2018-09-22T11:33:47.019Z,35.20
2018-09-22T11:36:19.693Z,34.70
2018-09-22T11:38:53.137Z,35.60
2018-09-22T11:41:27.953Z,36.20
2018-09-22T11:44:04.544Z,37.30
2018-09-22T11:46:36.586Z,37.40
2018-09-22T11:49:09.411Z,36.80
2018-09-22T11:51:42.207Z,36.90
2018-09-22T11:54:14.373Z,37.10
2018-09-22T11:56:46.290Z,36.10
2018-09-22T11:59:19.081Z,35.20
2018-09-22T12:01:51.318Z,35.40
2018-09-22T12:04:25.751Z,36.00
2018-09-22T12:07:07.523Z,35.80
2018-09-22T12:09:39.486Z,34.20
2018-09-22T12:12:12.356Z,34.00
2018-09-22T12:14:44.962Z,34.40
2018-09-22T12:17:17.350Z,34.30
2018-09-22T12:19:49.385Z,35.00
2018-09-22T12:22:21.183Z,33.80
2018-09-22T12:24:53.705Z,34.10
2018-09-22T12:27:25.929Z,34.70
2018-09-22T12:29:59.878Z,33.70
2018-09-22T12:32:31.656Z,31.90
2018-09-22T12:35:04.568Z,32.30
2018-09-22T12:37:36.157Z,32.20
2018-09-22T12:40:08.927Z,31.30
2018-09-22T12:42:40.691Z,32.00
2018-09-22T12:45:12.974Z,31.80
2018-09-22T12:47:44.485Z,32.50
2018-09-22T12:50:16.188Z,33.40
2018-09-22T12:52:47.052Z,32.60
2018-09-22T12:55:18.021Z,32.30
2018-09-22T12:57:49.255Z,31.50
2018-09-22T13:00:20.254Z,31.50
2018-09-22T13:02:50.927Z,31.80
2018-09-22T13:05:22.155Z,31.80
2018-09-22T13:07:53.002Z,32.70
2018-09-22T13:10:24.014Z,32.40
2018-09-22T13:12:54.816Z,32.30
2018-09-22T13:15:26.437Z,31.80
2018-09-22T13:17:57.397Z,31.20
2018-09-22T13:20:28.221Z,32.20
2018-09-22T13:22:59.574Z,31.90
2018-09-22T13:25:30.457Z,31.60
2018-09-22T13:28:01.520Z,31.50
2018-09-22T13:30:32.201Z,31.60
2018-09-22T13:33:04.041Z,31.60
2018-09-22T13:35:34.959Z,31.60
2018-09-22T13:38:06.007Z,31.20
2018-09-22T13:40:37.851Z,31.80
2018-09-22T13:43:09.123Z,31.40
2018-09-22T13:45:40.140Z,31.20
2018-09-22T13:48:11.015Z,31.30
2018-09-22T13:50:41.959Z,32.00
2018-09-22T13:53:12.636Z,32.60
2018-09-22T13:55:43.335Z,32.70
2018-09-22T13:58:14.015Z,33.00
2018-09-22T14:00:45.088Z,31.50
2018-09-22T14:03:16.582Z,31.30
2018-09-22T14:05:47.372Z,30.70
2018-09-22T14:08:17.942Z,31.20
2018-09-22T14:10:48.867Z,31.30
2018-09-22T14:13:19.567Z,30.60
2018-09-22T14:15:50.726Z,31.30
2018-09-22T14:18:21.556Z,31.40
2018-09-22T14:20:52.577Z,31.80
2018-09-22T14:23:23.484Z,31.90
2018-09-22T14:25:54.148Z,32.10
2018-09-22T14:28:24.781Z,31.20
2018-09-22T14:30:56.099Z,30.90
2018-09-22T14:33:27.237Z,30.00
2018-09-22T14:35:57.973Z,29.60
2018-09-22T14:38:28.731Z,29.70
2018-09-22T14:40:59.487Z,30.00
2018-09-22T14:43:30.087Z,30.40
2018-09-22T14:46:00.725Z,30.30
2018-09-22T14:48:31.940Z,30.20
2018-09-22T14:51:03.197Z,30.00
2018-09-22T14:53:34.006Z,29.90
2018-09-22T14:56:04.931Z,29.60
2018-09-22T14:58:35.566Z,29.20
2018-09-22T15:01:06.445Z,29.10
2018-09-22T15:03:36.998Z,29.30
2018-09-22T15:06:07.965Z,29.30
2018-09-22T15:08:38.752Z,29.30
2018-09-22T15:11:09.356Z,29.20
2018-09-22T15:13:40.939Z,28.90
2018-09-22T15:16:11.556Z,28.60
2018-09-22T15:18:42.144Z,28.60
2018-09-22T15:21:13.038Z,28.50
2018-09-22T15:23:43.917Z,28.50
2018-09-22T15:26:14.497Z,28.50
2018-09-22T15:28:45.273Z,28.60
2018-09-22T15:31:17.147Z,28.70
2018-09-22T15:33:47.891Z,28.50
2018-09-22T15:36:18.661Z,28.60
2018-09-22T15:38:49.943Z,28.30
2018-09-22T15:41:20.690Z,28.30
2018-09-22T15:43:51.405Z,28.20
2018-09-22T15:46:21.986Z,28.40
2018-09-22T15:48:52.935Z,28.60
2018-09-22T15:51:23.867Z,28.80
2018-09-22T15:53:54.527Z,28.50
2018-09-22T15:56:25.195Z,28.30
2018-09-22T15:58:56.221Z,28.30
2018-09-22T16:01:26.968Z,28.00
2018-09-22T16:03:57.616Z,28.00
2018-09-22T16:06:28.971Z,28.10
2018-09-22T16:08:59.926Z,28.20
2018-09-22T16:11:30.559Z,28.20
2018-09-22T16:14:01.473Z,28.20
2018-09-22T16:16:32.012Z,28.20
2018-09-22T16:19:02.989Z,28.10
2018-09-22T16:21:33.816Z,28.10
2018-09-22T16:24:04.545Z,28.00
2018-09-22T16:26:35.323Z,27.90
2018-09-22T16:29:06.628Z,28.00
2018-09-22T16:31:37.789Z,27.90
2018-09-22T16:34:08.764Z,28.00
2018-09-22T16:36:39.587Z,27.90
2018-09-22T16:39:11.576Z,27.80
2018-09-22T16:41:42.663Z,27.70
2018-09-22T16:44:14.426Z,27.40
2018-09-22T16:46:45.335Z,27.30
2018-09-22T16:49:16.386Z,27.20
2018-09-22T16:51:46.876Z,27.10
2018-09-22T16:54:18.038Z,26.90
2018-09-22T16:56:48.625Z,26.60
2018-09-22T16:59:19.759Z,26.20
2018-09-22T17:01:50.694Z,26.10
2018-09-22T17:04:22.746Z,26.00
2018-09-22T17:06:53.336Z,25.80
2018-09-22T17:09:24.741Z,25.70
2018-09-22T17:11:55.436Z,25.50
2018-09-22T17:14:26.187Z,25.30
2018-09-22T17:16:57.124Z,25.20
2018-09-22T17:19:28.521Z,25.10
2018-09-22T17:21:59.861Z,25.10
2018-09-22T17:24:30.631Z,25.00
2018-09-22T17:27:01.336Z,24.90
2018-09-22T17:29:32.611Z,24.70
2018-09-22T17:32:03.178Z,24.70
2018-09-22T17:34:34.022Z,24.60
2018-09-22T17:37:05.522Z,24.30
2018-09-22T17:39:37.246Z,24.20
2018-09-22T17:42:09.274Z,24.10
2018-09-22T17:44:40.272Z,23.90
2018-09-22T17:47:12.565Z,23.80
2018-09-22T17:49:43.460Z,23.80
2018-09-22T17:52:14.206Z,23.60
2018-09-22T17:54:45.445Z,23.50
2018-09-22T17:57:16.228Z,23.50
2018-09-22T17:59:47.701Z,23.40
2018-09-22T18:02:19.113Z,23.30
2018-09-22T18:04:51.244Z,23.10
2018-09-22T18:07:38.002Z,23.10
2018-09-22T18:10:11.200Z,23.00
2018-09-22T18:12:41.973Z,22.90
2018-09-22T18:15:13.643Z,22.90
2018-09-22T18:17:44.800Z,22.80
2018-09-22T18:20:16.168Z,22.80
2018-09-22T18:22:47.159Z,22.70
2018-09-22T18:25:18.961Z,22.70
2018-09-22T18:27:52.093Z,22.80
2018-09-22T18:30:22.817Z,22.70
2018-09-22T18:32:53.919Z,22.70
2018-09-22T18:35:25.845Z,22.70
2018-09-22T18:37:57.016Z,22.70
2018-09-22T18:40:29.121Z,22.60
2018-09-22T18:42:59.835Z,22.50
2018-09-22T18:45:31.196Z,22.40
2018-09-22T18:48:01.885Z,22.40
2018-09-22T18:50:33.778Z,22.30
2018-09-22T18:53:05.425Z,22.30
2018-09-22T18:55:37.571Z,22.30
2018-09-22T18:58:10.019Z,22.20
2018-09-22T19:00:41.765Z,22.10
2018-09-22T19:03:13.532Z,22.00
2018-09-22T19:05:45.332Z,21.80
2018-09-22T19:08:17.115Z,21.70
2018-09-22T19:10:48.789Z,21.70
2018-09-22T19:13:26.748Z,21.70
2018-09-22T19:16:03.719Z,21.60
2018-09-22T19:18:45.973Z,21.50
2018-09-22T19:22:19.917Z,21.40
2018-09-22T19:25:12.812Z,21.40
2018-09-22T19:28:03.027Z,21.40
2018-09-22T19:30:41.144Z,21.40
2018-09-22T19:33:20.098Z,21.40
2018-09-22T19:36:00.133Z,21.30
2018-09-22T19:38:35.008Z,21.40
2018-09-22T19:41:11.540Z,21.30
2018-09-22T19:43:47.425Z,21.30
2018-09-22T19:46:38.427Z,21.20
2018-09-22T19:49:44.223Z,21.20
2018-09-22T19:52:20.860Z,21.10
2018-09-22T19:54:52.320Z,21.10
2018-09-22T19:57:24.609Z,21.00
2018-09-22T19:59:55.558Z,20.90
2018-09-22T20:02:27.416Z,21.00
2018-09-22T20:04:58.536Z,21.00
2018-09-22T20:07:29.569Z,20.90
2018-09-22T20:10:01.389Z,20.90
2018-09-22T20:12:32.492Z,20.90
2018-09-22T20:15:05.015Z,20.90
2018-09-22T20:17:36.258Z,20.90
2018-09-22T20:20:07.766Z,20.80
2018-09-22T20:22:38.775Z,20.80
2018-09-22T20:25:09.819Z,20.70
2018-09-22T20:27:41.648Z,20.60
2018-09-22T20:30:12.441Z,20.60
2018-09-22T20:32:44.429Z,20.70
2018-09-22T20:35:15.111Z,20.70
2018-09-22T20:37:46.789Z,20.70
2018-09-22T20:40:17.771Z,20.70
2018-09-22T20:42:49.538Z,20.60
2018-09-22T20:45:20.316Z,20.60
2018-09-22T20:47:52.529Z,20.60
2018-09-22T20:50:23.576Z,20.60
2018-09-22T20:52:54.454Z,20.60
2018-09-22T20:55:25.969Z,20.60
2018-09-22T20:57:57.454Z,20.60
2018-09-22T21:00:29.629Z,20.60
2018-09-22T21:03:01.562Z,20.60
2018-09-22T21:05:32.292Z,20.60
2018-09-22T21:08:02.912Z,20.50
2018-09-22T21:10:33.611Z,20.60
2018-09-22T21:13:04.192Z,20.60
2018-09-22T21:15:34.903Z,20.50
2018-09-22T21:18:06.151Z,20.60
2018-09-22T21:20:36.833Z,20.50
2018-09-22T21:23:07.604Z,20.60
2018-09-22T21:25:38.170Z,20.60
2018-09-22T21:28:09.372Z,20.60
2018-09-22T21:30:40.229Z,20.60
2018-09-22T21:33:15.922Z,20.50
2018-09-22T21:35:47.589Z,20.50
2018-09-22T21:38:18.129Z,20.60
2018-09-22T21:40:49.336Z,20.60
2018-09-22T21:43:20.229Z,20.60
2018-09-22T21:45:50.890Z,20.60
2018-09-22T21:48:21.855Z,20.50
2018-09-22T21:50:52.482Z,20.40
2018-09-22T21:53:23.568Z,20.40
2018-09-22T21:55:55.233Z,20.40
2018-09-22T21:58:26.051Z,20.40
2018-09-22T22:00:57.173Z,20.40
2018-09-22T22:03:28.822Z,20.30
2018-09-22T22:05:59.304Z,20.30
2018-09-22T22:08:29.898Z,20.30
2018-09-22T22:11:00.557Z,20.30
2018-09-22T22:13:31.140Z,20.40
2018-09-22T22:16:02.180Z,20.30
2018-09-22T22:18:33.302Z,20.30
2018-09-22T22:21:04.077Z,20.30
2018-09-22T22:23:34.776Z,20.20
2018-09-22T22:26:05.419Z,20.10
2018-09-22T22:28:36.050Z,19.90
2018-09-22T22:31:07.639Z,19.80
2018-09-22T22:33:39.008Z,19.70
2018-09-22T22:36:09.930Z,19.60
2018-09-22T22:38:40.707Z,19.60
2018-09-22T22:41:11.536Z,19.60
2018-09-22T22:43:42.391Z,19.60
2018-09-22T22:46:14.109Z,19.50
2018-09-22T22:48:44.992Z,19.40
2018-09-22T22:51:15.508Z,19.50
2018-09-22T22:53:46.247Z,19.50
2018-09-22T22:56:16.803Z,19.60
2018-09-22T22:58:47.254Z,19.70
2018-09-22T23:01:18.098Z,19.70
2018-09-22T23:03:48.690Z,19.70
2018-09-22T23:06:19.945Z,19.60
2018-09-22T23:08:50.468Z,19.60
2018-09-22T23:11:21.045Z,19.70
2018-09-22T23:13:51.624Z,19.60
2018-09-22T23:16:22.252Z,19.60
2018-09-22T23:18:52.617Z,19.60
2018-09-22T23:21:23.410Z,19.60
2018-09-22T23:23:54.094Z,19.60
2018-09-22T23:26:24.557Z,19.50
2018-09-22T23:28:55.288Z,19.40
2018-09-22T23:31:25.918Z,19.40
2018-09-22T23:33:56.747Z,19.40
2018-09-22T23:36:27.478Z,19.30
2018-09-22T23:38:59.092Z,19.20
2018-09-22T23:41:29.569Z,19.10
2018-09-22T23:44:00.195Z,19.20
2018-09-22T23:46:30.812Z,19.30
2018-09-22T23:49:01.320Z,19.40
2018-09-22T23:51:31.909Z,19.30
2018-09-22T23:54:02.363Z,19.20
2018-09-22T23:56:33.023Z,19.00
2018-09-22T23:59:03.583Z,19.00
